Time;durP1;ratioP1;P1;durP2;ratioP2;P2;SDS_P1;SDS_P2;PMS_P1;PMS_P2;Temp;Humidity;BMP_temperature;BMP_pressure;BME280_temperature;BME280_humidity;BME280_pressure;Samples;Min_cycle;Max_cycle;Signal;HPM_P1;HPM_P2
2022/11/11 00:00:15;;;;;;;14.32;6.50;;;12.70;99.90;;;;;;5056724;28;20102;-87
2022/11/11 00:02:40;;;;;;;16.05;7.38;;;12.70;99.90;;;;;;5038062;28;20133;-88
2022/11/11 00:05:06;;;;;;;13.63;6.63;;;12.70;99.90;;;;;;5056110;28;20498;-88
2022/11/11 00:07:32;;;;;;;13.85;6.22;;;12.60;99.90;;;;;;5056029;28;20068;-87
2022/11/11 00:09:57;;;;;;;19.23;7.78;;;12.70;99.90;;;;;;5056133;28;20460;-88
2022/11/11 00:12:23;;;;;;;12.55;7.05;;;12.60;99.90;;;;;;5038884;28;20052;-88
2022/11/11 00:14:48;;;;;;;12.40;7.43;;;12.60;99.90;;;;;;5056530;28;20087;-88
2022/11/11 00:25:27;;;;;;;18.05;7.80;;;13.10;99.90;;;;;;5016586;28;20057;-87
2022/11/11 00:27:52;;;;;;;17.30;7.75;;;12.80;99.90;;;;;;5016982;28;20082;-87
2022/11/11 00:30:18;;;;;;;19.58;8.23;;;13.40;99.90;;;;;;5035614;28;20049;-88
2022/11/11 00:32:44;;;;;;;18.58;7.75;;;12.50;99.90;;;;;;5035411;28;20038;-88
2022/11/11 00:37:54;;;;;;;16.17;7.68;;;12.50;99.90;;;;;;5035582;28;20144;-87
2022/11/11 00:40:20;;;;;;;14.07;7.03;;;13.00;99.90;;;;;;5018036;28;20115;-87
2022/11/11 00:42:45;;;;;;;16.67;8.13;;;12.50;99.90;;;;;;5035378;28;20056;-87
2022/11/11 00:45:11;;;;;;;15.57;7.45;;;13.20;99.90;;;;;;5035278;28;20046;-88
2022/11/11 00:53:12;;;;;;;19.73;7.88;;;13.50;99.90;;;;;;5035788;28;20453;-88
2022/11/11 00:55:38;;;;;;;13.15;7.72;;;12.50;99.90;;;;;;5051557;28;20045;-87
2022/11/11 00:58:03;;;;;;;15.50;7.78;;;13.50;99.90;;;;;;5055251;28;20040;-87
2022/11/11 01:00:29;;;;;;;18.70;7.72;;;12.90;99.90;;;;;;5054937;28;20398;-87
2022/11/11 01:02:56;;;;;;;12.98;6.30;;;12.50;99.90;;;;;;5054187;28;20091;-87
2022/11/11 01:05:24;;;;;;;18.40;7.75;;;13.80;99.90;;;;;;5037108;28;20052;-87
2022/11/11 01:07:50;;;;;;;15.98;7.75;;;13.80;99.90;;;;;;5037164;28;20041;-88
2022/11/11 01:10:36;;;;;;;15.95;7.80;;;13.60;99.90;;;;;;5036890;28;20086;-88
2022/11/11 01:13:12;;;;;;;15.57;7.80;;;13.60;99.90;;;;;;5054502;28;20508;-87
2022/11/11 01:15:39;;;;;;;19.08;7.45;;;12.60;99.90;;;;;;5054973;28;20401;-88
2022/11/11 01:18:06;;;;;;;15.45;7.90;;;13.20;99.90;;;;;;5054961;28;20505;-88
2022/11/11 01:20:32;;;;;;;15.70;8.25;;;12.80;99.90;;;;;;5054804;28;20158;-88
2022/11/11 01:22:57;;;;;;;14.32;8.00;;;12.80;99.90;;;;;;5037463;28;20462;-87
2022/11/11 01:25:23;;;;;;;19.60;8.55;;;12.60;99.90;;;;;;5038228;28;20048;-88
2022/11/11 01:27:49;;;;;;;17.30;8.70;;;12.60;99.90;;;;;;5054220;28;20099;-87
2022/11/11 01:30:15;;;;;;;15.65;7.93;;;13.60;99.90;;;;;;5036538;28;20049;-88
2022/11/11 01:32:40;;;;;;;16.17;8.52;;;12.50;99.90;;;;;;5037705;28;20072;-87
2022/11/11 01:35:07;;;;;;;16.13;8.00;;;13.60;99.90;;;;;;5038419;28;20048;-87
2022/11/11 01:37:33;;;;;;;16.67;8.35;;;12.50;99.90;;;;;;5055084;28;20070;-87
2022/11/11 01:39:59;;;;;;;17.40;8.60;;;12.50;99.90;;;;;;5054563;28;20421;-87
2022/11/11 01:42:24;;;;;;;16.50;8.60;;;12.50;99.90;;;;;;5036377;28;20037;-87
2022/11/11 01:44:50;;;;;;;15.52;8.20;;;12.50;99.90;;;;;;5053916;28;20044;-87
2022/11/11 01:47:17;;;;;;;15.52;8.70;;;13.70;99.90;;;;;;5054589;28;20041;-88
2022/11/11 01:49:59;;;;;;;20.58;8.32;;;12.50;99.90;;;;;;5037111;28;20049;-88
2022/11/11 01:52:37;;;;;;;15.85;8.13;;;12.50;99.90;;;;;;5054150;28;20091;-87
2022/11/11 01:55:11;;;;;;;15.88;8.02;;;12.90;99.90;;;;;;5036259;28;20504;-87
2022/11/11 01:57:48;;;;;;;19.90;9.23;;;12.50;99.90;;;;;;5019829;28;20045;-87
2022/11/11 02:00:18;;;;;;;17.48;9.20;;;12.50;99.90;;;;;;5047684;28;20055;-87
2022/11/11 02:02:53;;;;;;;16.17;9.38;;;12.40;99.90;;;;;;5073983;28;20055;-87
2022/11/11 02:08:32;;;;;;;22.40;9.15;;;12.50;99.90;;;;;;5057816;28;20401;-87
2022/11/11 02:11:00;;;;;;;19.02;9.15;;;12.40;99.90;;;;;;5074984;28;20067;-87
2022/11/11 02:16:09;;;;;;;16.60;8.63;;;12.40;99.90;;;;;;5073443;28;20501;-87
2022/11/11 02:18:35;;;;;;;17.75;8.25;;;12.40;99.90;;;;;;5073361;28;20253;-87
2022/11/11 02:21:00;;;;;;;19.45;9.35;;;13.10;99.90;;;;;;5073453;28;20092;-87
2022/11/11 02:23:38;;;;;;;16.50;8.60;;;13.10;99.90;;;;;;5055856;28;20053;-87
2022/11/11 02:26:05;;;;;;;20.52;10.07;;;12.40;99.90;;;;;;5056677;28;20190;-88
2022/11/11 02:28:32;;;;;;;20.92;9.55;;;12.40;99.90;;;;;;5075027;28;20097;-87
2022/11/11 02:30:58;;;;;;;18.73;9.18;;;12.40;99.90;;;;;;5073550;28;20040;-88
2022/11/11 02:33:23;;;;;;;16.80;8.68;;;12.90;99.90;;;;;;5054994;28;20123;-87
2022/11/11 02:35:57;;;;;;;21.00;9.43;;;13.20;99.90;;;;;;5055212;28;20485;-87
2022/11/11 02:38:24;;;;;;;20.40;9.30;;;12.50;99.90;;;;;;5054756;28;20048;-87
2022/11/11 02:43:35;;;;;;;21.27;10.35;;;12.40;99.90;;;;;;5073815;28;20045;-87
2022/11/11 02:46:03;;;;;;;17.63;8.40;;;12.70;99.90;;;;;;5073810;28;20051;-88
2022/11/11 02:48:28;;;;;;;18.33;10.25;;;13.60;99.90;;;;;;5073487;28;20041;-86
2022/11/11 02:50:54;;;;;;;21.65;10.25;;;13.50;99.90;;;;;;5073191;28;20086;-87
2022/11/11 02:53:20;;;;;;;20.08;10.68;;;12.40;99.90;;;;;;5072248;28;20079;-88
2022/11/11 02:55:46;;;;;;;20.63;11.40;;;12.40;99.90;;;;;;5036266;28;20044;-87
2022/11/11 02:58:13;;;;;;;20.65;11.70;;;12.40;99.90;;;;;;5073026;28;20508;-87
2022/11/11 03:00:39;;;;;;;16.90;10.80;;;12.30;99.90;;;;;;5055002;28;20057;-87
2022/11/11 03:03:05;;;;;;;21.02;12.48;;;12.20;99.90;;;;;;5054846;28;20052;-87
2022/11/11 03:05:30;;;;;;;22.13;12.13;;;12.80;99.90;;;;;;5073069;28;20373;-87
2022/11/11 03:07:56;;;;;;;18.55;12.35;;;13.50;99.90;;;;;;5073165;28;20037;-87
2022/11/11 03:10:22;;;;;;;18.85;12.15;;;12.20;99.90;;;;;;5072968;28;20045;-87
2022/11/11 03:12:47;;;;;;;20.00;13.40;;;13.20;99.90;;;;;;5073291;28;20041;-87
2022/11/11 03:15:13;;;;;;;24.52;14.13;;;12.20;99.90;;;;;;5074408;28;20397;-87
2022/11/11 03:17:38;;;;;;;23.23;14.25;;;12.20;99.90;;;;;;5073598;28;20449;-87
2022/11/11 03:23:08;;;;;;;21.83;13.48;;;12.00;99.90;;;;;;5071817;28;20127;-87
2022/11/11 03:25:45;;;;;;;24.90;14.88;;;12.00;99.90;;;;;;5056551;28;20041;-87
2022/11/11 03:28:13;;;;;;;21.92;15.57;;;12.10;99.90;;;;;;5076935;28;20036;-88
2022/11/11 03:30:41;;;;;;;24.52;15.75;;;12.10;99.90;;;;;;5076885;28;20047;-88
2022/11/11 03:33:07;;;;;;;27.85;16.42;;;12.00;99.90;;;;;;5058598;28;20347;-88
2022/11/11 03:35:33;;;;;;;26.15;16.50;;;11.90;99.90;;;;;;5059631;28;20127;-87
2022/11/11 03:38:15;;;;;;;23.02;15.63;;;12.10;99.90;;;;;;5058530;28;20056;-87
2022/11/11 03:40:48;;;;;;;25.95;16.10;;;12.00;99.90;;;;;;5059048;28;20092;-88
2022/11/11 03:43:16;;;;;;;27.55;17.00;;;11.90;99.90;;;;;;5074137;28;20590;-87
2022/11/11 03:45:43;;;;;;;26.58;17.30;;;11.90;99.90;;;;;;5056283;28;20044;-87
2022/11/11 03:48:10;;;;;;;29.33;17.65;;;12.90;99.90;;;;;;5055678;28;20043;-87
2022/11/11 03:50:35;;;;;;;28.08;17.35;;;12.90;99.90;;;;;;5054685;28;20048;-87
2022/11/11 03:53:01;;;;;;;29.02;18.58;;;11.80;99.90;;;;;;5055990;28;20037;-87
2022/11/11 03:55:27;;;;;;;25.90;17.60;;;12.40;99.90;;;;;;5056351;28;20041;-87
2022/11/11 03:57:52;;;;;;;25.77;17.30;;;11.80;99.90;;;;;;5056133;28;20067;-87
2022/11/11 04:00:21;;;;;;;26.52;16.65;;;11.80;99.90;;;;;;5038573;28;20056;-87
2022/11/11 04:11:07;;;;;;;;;;;12.60;99.90;;;;;;5056342;28;20124;-88
2022/11/11 04:16:19;;;;;;;27.45;17.65;;;11.90;99.90;;;;;;5055793;28;20059;-87
2022/11/11 04:21:44;;;;;;;27.35;17.98;;;11.80;99.90;;;;;;5055660;28;20128;-87
2022/11/11 04:27:07;;;;;;;28.95;18.60;;;11.70;99.90;;;;;;5057000;28;20084;-88
2022/11/11 04:29:33;;;;;;;27.83;19.02;;;11.70;99.90;;;;;;5056745;28;20045;-87
2022/11/11 04:34:56;;;;;;;33.75;17.90;;;11.70;99.90;;;;;;5055235;28;20120;-88
2022/11/11 04:37:22;;;;;;;28.35;18.55;;;11.80;99.90;;;;;;5054533;28;20060;-87
2022/11/11 04:42:33;;;;;;;33.58;19.08;;;11.70;99.90;;;;;;5056769;28;20045;-87
2022/11/11 04:48:02;;;;;;;28.77;16.50;;;11.70;99.90;;;;;;5038826;28;20084;-87
2022/11/11 04:50:36;;;;;;;31.25;19.70;;;11.80;99.90;;;;;;5055324;28;20345;-87
2022/11/11 04:53:04;;;;;;;29.58;19.33;;;12.50;99.90;;;;;;5055065;28;20069;-86
2022/11/11 04:58:15;;;;;;;25.33;18.13;;;12.80;99.90;;;;;;5074969;28;20048;-85
2022/11/11 05:00:41;;;;;;;29.23;16.65;;;12.30;99.90;;;;;;5059130;28;20417;-86
2022/11/11 05:03:22;;;;;;;29.38;18.48;;;11.80;99.90;;;;;;5053034;28;20037;-86
2022/11/11 05:09:01;;;;;;;32.45;19.65;;;11.80;99.90;;;;;;5054653;28;20562;-86
2022/11/11 05:11:28;;;;;;;27.80;18.25;;;11.70;99.90;;;;;;5036778;28;20049;-86
2022/11/11 05:22:25;;;;;;;30.58;20.15;;;12.70;99.90;;;;;;5037276;28;20044;-86
2022/11/11 05:27:35;;;;;;;34.85;19.38;;;12.50;99.90;;;;;;5054282;28;20466;-86
2022/11/11 05:30:02;;;;;;;34.25;22.75;;;11.60;99.90;;;;;;5054363;28;20044;-87
2022/11/11 05:32:28;;;;;;;33.08;21.75;;;11.90;99.90;;;;;;5054154;28;20084;-87
2022/11/11 05:34:53;;;;;;;35.20;20.85;;;12.00;99.90;;;;;;5054040;28;20052;-87
2022/11/11 05:37:19;;;;;;;33.78;21.02;;;11.60;99.90;;;;;;5036343;28;20048;-87
2022/11/11 05:39:45;;;;;;;35.88;21.33;;;12.90;99.90;;;;;;5052744;28;20048;-87
2022/11/11 05:42:11;;;;;;;32.70;21.25;;;11.60;99.90;;;;;;5052553;28;20113;-86
2022/11/11 05:44:37;;;;;;;33.63;21.42;;;11.70;99.90;;;;;;5020777;28;20558;-87
2022/11/11 05:47:03;;;;;;;32.40;20.92;;;12.80;99.90;;;;;;5034041;28;20029;-86
2022/11/11 05:49:29;;;;;;;32.50;21.30;;;11.50;99.90;;;;;;5015766;28;20048;-86
2022/11/11 05:51:55;;;;;;;35.15;21.65;;;11.50;99.90;;;;;;5016003;28;20391;-86
2022/11/11 05:54:21;;;;;;;35.30;22.08;;;11.80;99.90;;;;;;5033735;28;20513;-86
2022/11/11 05:56:47;;;;;;;32.70;21.00;;;11.50;99.90;;;;;;5033784;28;20087;-86
2022/11/11 05:59:13;;;;;;;30.88;20.83;;;12.50;99.90;;;;;;5033416;28;20061;-86
2022/11/11 06:01:38;;;;;;;31.10;20.50;;;11.50;99.90;;;;;;5034977;28;20080;-87
2022/11/11 06:04:05;;;;;;;29.48;20.77;;;11.60;99.90;;;;;;5016747;28;20054;-86
2022/11/11 06:06:31;;;;;;;36.45;20.20;;;11.40;99.90;;;;;;5016789;28;20072;-86
2022/11/11 06:08:57;;;;;;;30.55;20.17;;;11.30;99.90;;;;;;5016170;28;20356;-86
2022/11/11 06:11:23;;;;;;;33.55;20.20;;;11.40;99.90;;;;;;5033377;28;20087;-86
2022/11/11 06:13:49;;;;;;;32.30;19.80;;;11.40;99.90;;;;;;5033536;28;20048;-85
2022/11/11 06:16:15;;;;;;;30.58;17.40;;;11.40;99.90;;;;;;5033715;28;20445;-86
2022/11/11 06:18:41;;;;;;;33.20;21.20;;;11.40;99.90;;;;;;5033562;28;20617;-86
2022/11/11 06:21:07;;;;;;;31.80;17.55;;;11.50;99.90;;;;;;5033532;28;20060;-86
2022/11/11 06:23:33;;;;;;;32.00;19.73;;;11.70;99.90;;;;;;4999712;28;20491;-85
2022/11/11 06:26:14;;;;;;;31.30;19.48;;;11.60;99.90;;;;;;5015618;28;20046;-86
2022/11/11 06:28:44;;;;;;;29.70;18.48;;;11.70;99.90;;;;;;5033312;28;20040;-86
2022/11/11 06:31:21;;;;;;;32.80;17.67;;;11.60;99.90;;;;;;5015508;28;20053;-86
2022/11/11 06:33:47;;;;;;;29.52;17.73;;;11.70;99.90;;;;;;5032677;28;20042;-86
2022/11/11 06:36:17;;;;;;;26.92;17.60;;;11.70;99.90;;;;;;5015646;28;20051;-86
2022/11/11 06:38:42;;;;;;;25.55;15.32;;;11.80;99.90;;;;;;4998978;28;20119;-86
2022/11/11 06:41:13;;;;;;;31.63;17.42;;;11.80;99.90;;;;;;5033300;28;20095;-86
2022/11/11 06:43:44;;;;;;;31.88;17.63;;;11.80;99.90;;;;;;5032770;28;20128;-86
2022/11/11 06:46:22;;;;;;;27.50;18.02;;;11.80;99.90;;;;;;5033036;28;20045;-86
2022/11/11 06:48:48;;;;;;;30.23;19.13;;;11.80;99.90;;;;;;5032956;28;20051;-86
2022/11/11 06:51:14;;;;;;;28.92;19.00;;;11.90;99.90;;;;;;5032623;28;20041;-86
2022/11/11 06:53:41;;;;;;;30.23;20.02;;;11.90;99.90;;;;;;4998813;28;20433;-87
2022/11/11 06:56:07;;;;;;;31.98;20.65;;;11.80;99.90;;;;;;5017994;28;20049;-87
2022/11/11 06:58:34;;;;;;;30.17;19.30;;;11.80;99.90;;;;;;5033952;28;20140;-87
2022/11/11 07:01:04;;;;;;;34.72;20.58;;;12.10;99.90;;;;;;5051849;28;20068;-86
2022/11/11 07:03:29;;;;;;;34.13;21.50;;;11.80;99.90;;;;;;5072817;28;20143;-87
2022/11/11 07:05:55;;;;;;;36.58;21.15;;;11.80;99.90;;;;;;5072759;28;20041;-87
2022/11/11 07:08:21;;;;;;;31.88;20.77;;;11.70;99.90;;;;;;5072517;28;20043;-87
2022/11/11 07:10:48;;;;;;;34.55;21.23;;;11.80;99.90;;;;;;5071890;28;20086;-87
2022/11/11 07:13:14;;;;;;;31.27;20.40;;;11.70;99.90;;;;;;5055902;28;20086;-87
2022/11/11 07:15:42;;;;;;;36.30;21.10;;;12.60;99.90;;;;;;5038334;28;20447;-87
2022/11/11 07:18:07;;;;;;;27.20;17.77;;;12.60;99.90;;;;;;5054909;28;20405;-87
2022/11/11 07:20:33;;;;;;;35.58;22.02;;;13.10;99.90;;;;;;5039050;28;20055;-87
2022/11/11 07:22:59;;;;;;;32.05;19.88;;;11.80;99.90;;;;;;5075435;28;20048;-87
2022/11/11 07:25:24;;;;;;;37.15;20.75;;;13.00;99.90;;;;;;5074228;28;20119;-87
2022/11/11 07:27:50;;;;;;;34.28;22.10;;;11.80;99.90;;;;;;5072286;28;20037;-87
2022/11/11 07:30:16;;;;;;;35.42;20.90;;;11.80;99.90;;;;;;5070688;28;20056;-87
2022/11/11 07:32:46;;;;;;;34.42;20.42;;;11.80;99.90;;;;;;5071241;28;20045;-87
2022/11/11 07:35:13;;;;;;;34.15;21.10;;;11.80;99.90;;;;;;5054507;28;20045;-87
2022/11/11 07:37:39;;;;;;;36.97;21.02;;;11.80;99.90;;;;;;5072729;28;20045;-87
2022/11/11 07:40:05;;;;;;;31.83;20.67;;;12.80;99.90;;;;;;5072715;28;20507;-87
2022/11/11 07:42:31;;;;;;;33.65;21.55;;;11.80;99.90;;;;;;5072249;28;20163;-87
2022/11/11 07:44:57;;;;;;;34.83;21.23;;;13.00;99.90;;;;;;5056861;28;20076;-86
2022/11/11 07:47:22;;;;;;;36.15;20.48;;;11.80;99.90;;;;;;5034586;28;20103;-87
2022/11/11 07:49:48;;;;;;;28.77;18.38;;;11.40;99.90;;;;;;5034613;28;20159;-87
2022/11/11 07:52:13;;;;;;;30.42;20.10;;;12.90;99.90;;;;;;5052100;28;20080;-87
2022/11/11 07:54:39;;;;;;;31.40;19.90;;;13.00;99.90;;;;;;5035405;28;20201;-87
2022/11/11 07:57:04;;;;;;;32.08;21.02;;;11.80;99.90;;;;;;5053371;28;20375;-87
2022/11/11 07:59:30;;;;;;;29.70;20.10;;;13.00;99.90;;;;;;5034949;28;20053;-87
2022/11/11 08:01:56;;;;;;;37.42;20.75;;;12.80;99.90;;;;;;5034218;28;20057;-87
2022/11/11 08:04:21;;;;;;;34.60;20.13;;;11.80;99.90;;;;;;5035147;28;20136;-87
2022/11/11 08:06:47;;;;;;;37.03;20.38;;;11.80;99.90;;;;;;5035287;28;20076;-87
2022/11/11 08:09:13;;;;;;;33.63;21.65;;;11.80;99.90;;;;;;5035007;28;20059;-87
2022/11/11 08:14:23;;;;;;;33.67;21.92;;;12.00;99.90;;;;;;5036061;28;20045;-87
2022/11/11 08:16:48;;;;;;;30.60;20.52;;;13.00;99.90;;;;;;5055358;28;20110;-87
2022/11/11 08:19:14;;;;;;;35.97;20.33;;;11.90;99.90;;;;;;5055652;28;20055;-88
2022/11/11 08:21:39;;;;;;;34.72;20.63;;;11.80;99.90;;;;;;5055066;28;20041;-86
2022/11/11 08:24:07;;;;;;;30.95;18.25;;;12.80;99.90;;;;;;5037920;28;20045;-87
2022/11/11 08:26:33;;;;;;;31.08;19.65;;;11.80;99.90;;;;;;5021418;28;20040;-87
2022/11/11 08:28:58;;;;;;;30.70;20.20;;;13.00;99.90;;;;;;5055792;28;20574;-88
2022/11/11 08:31:25;;;;;;;30.73;19.65;;;11.80;99.90;;;;;;5055661;28;20043;-87
2022/11/11 08:33:51;;;;;;;31.25;19.35;;;11.80;99.90;;;;;;5037884;28;20048;-87
2022/11/11 08:36:17;;;;;;;33.53;20.75;;;12.80;99.90;;;;;;5039044;28;20115;-87
2022/11/11 08:38:42;;;;;;;30.70;19.77;;;13.10;99.90;;;;;;5056153;28;20081;-87
2022/11/11 08:41:09;;;;;;;35.75;19.77;;;11.90;99.90;;;;;;5055409;28;20063;-87
2022/11/11 08:43:35;;;;;;;30.98;19.52;;;12.40;99.90;;;;;;5056077;28;20070;-87
2022/11/11 08:46:02;;;;;;;31.38;20.50;;;11.80;99.90;;;;;;5037662;28;20075;-87
2022/11/11 08:48:32;;;;;;;28.65;19.88;;;11.80;99.90;;;;;;5037564;28;20049;-87
2022/11/11 08:50:58;;;;;;;30.40;19.38;;;11.80;99.90;;;;;;5037022;28;20107;-87
2022/11/11 08:53:23;;;;;;;32.63;18.42;;;12.70;99.90;;;;;;5054941;28;20044;-87
2022/11/11 08:55:49;;;;;;;23.02;15.05;;;11.80;99.90;;;;;;5037233;28;20055;-87
2022/11/11 08:58:15;;;;;;;31.85;19.02;;;12.60;99.90;;;;;;5056104;28;20041;-87
2022/11/11 09:00:41;;;;;;;31.75;19.48;;;11.90;99.90;;;;;;5040053;28;20092;-87
2022/11/11 09:03:10;;;;;;;30.63;19.60;;;12.50;99.90;;;;;;5017301;28;20103;-87
2022/11/11 09:05:39;;;;;;;29.58;18.80;;;12.90;99.90;;;;;;5035054;28;20090;-87
2022/11/11 09:08:06;;;;;;;26.25;17.08;;;11.90;99.90;;;;;;5035112;28;20517;-87
2022/11/11 09:10:33;;;;;;;28.05;17.40;;;11.90;99.90;;;;;;5017000;28;20045;-88
2022/11/11 09:13:00;;;;;;;30.05;18.38;;;12.00;99.90;;;;;;5034175;28;20041;-86
2022/11/11 09:15:26;;;;;;;27.48;18.15;;;12.00;99.90;;;;;;5034509;28;20052;-86
2022/11/11 09:17:52;;;;;;;29.83;18.73;;;13.30;99.90;;;;;;5034532;28;20095;-86
2022/11/11 09:20:18;;;;;;;27.30;18.50;;;13.10;99.90;;;;;;5016315;28;20486;-86
2022/11/11 09:22:48;;;;;;;25.13;15.48;;;13.30;99.90;;;;;;5034029;28;20379;-86
2022/11/11 09:25:14;;;;;;;26.98;17.88;;;11.90;99.90;;;;;;5034659;28;20056;-86
2022/11/11 09:27:41;;;;;;;29.55;18.58;;;11.90;99.90;;;;;;5034468;28;20053;-87
2022/11/11 09:30:08;;;;;;;29.33;18.38;;;13.20;99.90;;;;;;5034764;28;20093;-88
2022/11/11 09:32:34;;;;;;;31.55;16.27;;;11.90;99.90;;;;;;5018091;28;20116;-87
2022/11/11 09:35:00;;;;;;;27.00;18.65;;;11.90;99.90;;;;;;5000129;28;20107;-86
2022/11/11 09:37:26;;;;;;;29.88;18.52;;;11.90;99.90;;;;;;5016637;28;20049;-87
2022/11/11 09:39:54;;;;;;;25.83;17.48;;;11.90;99.90;;;;;;5016830;28;20046;-87
2022/11/11 09:42:32;;;;;;;28.90;15.73;;;11.90;99.90;;;;;;5017339;28;20089;-86
2022/11/11 09:45:25;;;;;;;26.27;18.50;;;12.00;99.90;;;;;;5000843;28;20056;-87
2022/11/11 09:48:26;;;;;;;25.05;17.20;;;11.80;99.90;;;;;;5000227;28;20508;-86
2022/11/11 09:50:56;;;;;;;27.52;18.23;;;11.90;99.90;;;;;;5033773;28;20470;-86
2022/11/11 09:53:25;;;;;;;25.58;16.50;;;12.70;99.90;;;;;;5033966;28;20111;-86
2022/11/11 09:56:07;;;;;;;25.70;16.95;;;11.80;99.90;;;;;;5033612;28;20056;-86
2022/11/11 09:58:58;;;;;;;27.33;18.30;;;11.80;99.90;;;;;;5033981;28;20084;-86
2022/11/11 10:01:27;;;;;;;28.50;18.15;;;12.60;99.90;;;;;;5054091;28;20049;-87
2022/11/11 10:04:03;;;;;;;28.90;18.60;;;12.80;99.90;;;;;;5035829;28;20133;-87
2022/11/11 10:06:33;;;;;;;26.95;18.17;;;13.20;99.90;;;;;;5055210;28;20053;-87
2022/11/11 10:09:14;;;;;;;27.65;17.70;;;11.70;99.90;;;;;;5036557;28;20045;-87
2022/11/11 10:11:58;;;;;;;28.25;15.80;;;11.70;99.90;;;;;;5052625;28;20048;-87
2022/11/11 10:14:31;;;;;;;29.27;18.00;;;12.60;99.90;;;;;;5052732;28;20425;-87
2022/11/11 10:17:28;;;;;;;28.67;18.50;;;11.70;99.90;;;;;;5053282;28;20079;-87
2022/11/11 10:20:31;;;;;;;28.30;17.60;;;11.70;99.90;;;;;;5049410;28;20090;-87
2022/11/11 10:23:17;;;;;;;22.88;14.88;;;11.70;99.90;;;;;;5072833;28;20060;-87
2022/11/11 10:25:53;;;;;;;24.90;16.08;;;11.70;99.90;;;;;;5072653;28;20047;-87
2022/11/11 10:28:21;;;;;;;26.75;17.25;;;11.70;99.90;;;;;;5074055;28;20076;-87
2022/11/11 10:30:49;;;;;;;29.23;17.58;;;11.70;99.90;;;;;;5055054;28;20081;-87
2022/11/11 10:33:26;;;;;;;27.35;17.60;;;11.70;99.90;;;;;;5055089;28;20125;-87
2022/11/11 10:35:54;;;;;;;27.55;17.50;;;11.80;99.90;;;;;;5052433;28;20044;-87
2022/11/11 10:38:34;;;;;;;29.15;18.30;;;11.80;99.90;;;;;;5071210;28;20044;-87
2022/11/11 10:41:12;;;;;;;29.83;17.65;;;11.70;99.90;;;;;;5055202;28;20050;-86
2022/11/11 10:43:38;;;;;;;27.48;18.05;;;12.70;99.90;;;;;;5072941;28;20095;-87
2022/11/11 10:46:15;;;;;;;26.55;17.52;;;11.80;99.90;;;;;;5072578;28;20462;-86
2022/11/11 10:48:52;;;;;;;24.75;17.95;;;11.60;99.90;;;;;;5072982;28;20088;-87
2022/11/11 10:51:18;;;;;;;27.13;17.15;;;11.70;99.90;;;;;;5072730;28;20052;-86
2022/11/11 10:53:53;;;;;;;27.05;16.98;;;11.60;99.90;;;;;;5055230;28;20045;-87
2022/11/11 10:56:23;;;;;;;24.17;16.70;;;11.70;99.90;;;;;;5017548;28;20505;-86
2022/11/11 10:59:05;;;;;;;25.30;17.67;;;11.80;99.90;;;;;;5034910;28;20102;-87
2022/11/11 11:01:36;;;;;;;23.48;15.02;;;11.80;99.90;;;;;;5015101;28;20150;-87
2022/11/11 11:04:14;;;;;;;28.42;16.63;;;11.80;99.90;;;;;;5033456;28;20091;-86
2022/11/11 11:06:43;;;;;;;25.38;15.15;;;11.80;99.90;;;;;;5033485;28;20088;-87
2022/11/11 11:09:15;;;;;;;24.75;15.93;;;11.90;99.90;;;;;;5015321;28;20480;-86
2022/11/11 11:11:49;;;;;;;26.50;16.95;;;11.90;99.90;;;;;;5014376;28;20041;-88
2022/11/11 11:14:29;;;;;;;26.50;16.92;;;12.80;99.90;;;;;;5032885;28;20057;-87
2022/11/11 11:17:00;;;;;;;21.77;16.40;;;11.90;99.90;;;;;;5032763;28;20042;-87
2022/11/11 11:19:27;;;;;;;25.95;15.80;;;12.90;99.90;;;;;;5032854;28;20605;-87
2022/11/11 11:22:00;;;;;;;23.40;15.90;;;11.90;99.90;;;;;;5032860;28;20041;-87
2022/11/11 11:24:32;;;;;;;23.58;15.57;;;11.90;99.90;;;;;;5015462;28;20049;-86
2022/11/11 11:27:04;;;;;;;25.77;16.33;;;12.00;99.90;;;;;;5032894;28;20085;-87
2022/11/11 11:29:41;;;;;;;24.10;14.75;;;13.10;99.90;;;;;;5013843;28;20044;-86
2022/11/11 11:32:13;;;;;;;23.60;16.23;;;12.00;99.90;;;;;;4997961;28;20050;-87
2022/11/11 11:34:49;;;;;;;24.25;17.20;;;12.00;99.90;;;;;;5032456;28;20044;-87
2022/11/11 11:37:16;;;;;;;26.10;16.40;;;12.50;99.90;;;;;;5015139;28;20090;-86
2022/11/11 11:39:42;;;;;;;22.67;16.70;;;12.00;99.90;;;;;;5032840;28;20037;-87
2022/11/11 11:42:25;;;;;;;24.60;16.95;;;12.00;99.90;;;;;;5032340;28;20176;-87
2022/11/11 11:44:51;;;;;;;21.92;16.52;;;12.10;99.90;;;;;;5032232;28;20041;-87
2022/11/11 11:47:35;;;;;;;24.10;17.27;;;13.40;99.90;;;;;;5015421;28;20042;-87
2022/11/11 11:50:19;;;;;;;21.42;15.75;;;12.00;99.90;;;;;;5017339;28;20378;-87
2022/11/11 11:53:07;;;;;;;22.65;15.60;;;12.00;99.90;;;;;;5036059;28;20083;-87
2022/11/11 11:55:43;;;;;;;24.05;16.42;;;12.00;99.90;;;;;;5018919;28;20383;-87
2022/11/11 11:58:20;;;;;;;22.55;15.75;;;12.00;99.90;;;;;;5019462;28;20042;-87
2022/11/11 12:01:02;;;;;;;22.02;16.33;;;12.10;99.90;;;;;;5036934;28;20069;-88
2022/11/11 12:04:11;;;;;;;22.30;15.90;;;12.10;99.90;;;;;;5036541;28;20057;-88
2022/11/11 12:07:04;;;;;;;20.90;15.60;;;12.00;99.90;;;;;;5019256;28;20145;-88
2022/11/11 12:09:39;;;;;;;21.90;14.75;;;12.00;99.90;;;;;;5036629;28;20042;-88
2022/11/11 12:12:29;;;;;;;21.50;15.15;;;12.10;99.90;;;;;;5018346;28;20136;-86
2022/11/11 12:15:01;;;;;;;23.52;15.23;;;12.10;99.90;;;;;;5036601;28;20099;-88
2022/11/11 12:17:43;;;;;;;23.65;15.73;;;12.00;99.90;;;;;;5019043;28;20464;-87
2022/11/11 12:20:39;;;;;;;21.23;14.45;;;12.00;99.90;;;;;;5018702;28;20041;-88
2022/11/11 12:23:18;;;;;;;21.40;14.88;;;12.00;99.90;;;;;;5033946;28;20061;-88
2022/11/11 12:26:06;;;;;;;21.90;14.88;;;12.20;99.90;;;;;;5001623;28;20084;-88
2022/11/11 12:28:41;;;;;;;24.58;15.48;;;12.00;99.90;;;;;;5017995;28;20045;-88
2022/11/11 12:31:13;;;;;;;19.88;15.32;;;12.00;99.90;;;;;;5016713;28;20305;-88
2022/11/11 12:33:59;;;;;;;23.00;15.35;;;12.00;99.90;;;;;;5017605;28;20049;-89
2022/11/11 12:37:02;;;;;;;24.33;15.65;;;12.00;99.90;;;;;;5017446;28;20049;-88
2022/11/11 12:40:03;;;;;;;20.23;15.10;;;12.00;99.90;;;;;;5034388;28;20042;-88
2022/11/11 12:42:49;;;;;;;22.40;14.27;;;12.10;99.90;;;;;;5035289;28;20554;-89
2022/11/11 12:45:26;;;;;;;22.67;14.20;;;12.00;99.90;;;;;;5035775;28;20041;-87
2022/11/11 12:48:13;;;;;;;23.05;15.88;;;12.00;99.90;;;;;;5002505;28;20041;-88
2022/11/11 12:50:55;;;;;;;22.65;15.05;;;12.00;99.90;;;;;;5019870;28;20115;-88
2022/11/11 12:53:32;;;;;;;23.05;15.65;;;12.30;99.90;;;;;;5019184;28;20176;-88
2022/11/11 12:56:13;;;;;;;19.10;13.95;;;12.90;99.90;;;;;;5034061;28;20071;-88
2022/11/11 12:59:00;;;;;;;20.92;15.43;;;12.00;99.90;;;;;;5018923;28;20052;-86
2022/11/11 13:01:47;;;;;;;25.17;16.60;;;12.00;99.90;;;;;;5054646;28;20044;-87
2022/11/11 13:04:45;;;;;;;22.92;15.77;;;12.00;99.90;;;;;;5037458;28;20365;-87
2022/11/11 13:07:45;;;;;;;23.48;16.00;;;11.90;99.90;;;;;;5053506;28;20069;-87
2022/11/11 13:10:22;;;;;;;21.33;13.98;;;12.00;99.90;;;;;;5055487;28;20077;-88
2022/11/11 13:13:06;;;;;;;24.55;15.65;;;12.00;99.90;;;;;;5055090;28;20070;-87
2022/11/11 13:15:31;;;;;;;23.10;17.08;;;12.00;99.90;;;;;;5037026;28;20049;-87
2022/11/11 13:18:01;;;;;;;23.70;15.82;;;12.00;99.90;;;;;;5055018;28;20037;-87
2022/11/11 13:21:02;;;;;;;21.95;15.23;;;12.50;99.90;;;;;;5054812;28;20045;-88
2022/11/11 13:23:28;;;;;;;24.20;15.32;;;12.00;99.90;;;;;;4978975;28;20071;-87
2022/11/11 13:26:02;;;;;;;21.48;15.10;;;12.10;99.90;;;;;;5054237;28;20044;-88
2022/11/11 13:28:33;;;;;;;24.05;14.57;;;11.90;99.90;;;;;;5038237;28;20055;-87
2022/11/11 13:31:11;;;;;;;20.95;15.23;;;11.90;99.90;;;;;;5055770;28;20628;-88
2022/11/11 13:33:45;;;;;;;22.27;15.50;;;11.90;99.90;;;;;;5035630;28;20081;-87
2022/11/11 13:36:15;;;;;;;21.20;15.75;;;12.10;99.90;;;;;;5052924;28;20175;-87
2022/11/11 13:38:52;;;;;;;24.13;15.88;;;12.20;99.90;;;;;;5054695;28;20081;-88
2022/11/11 13:41:34;;;;;;;22.45;16.20;;;11.90;99.90;;;;;;5036908;28;20045;-87
2022/11/11 13:44:04;;;;;;;24.25;16.38;;;11.80;99.90;;;;;;5053887;28;20049;-87
2022/11/11 13:46:40;;;;;;;24.08;16.83;;;11.80;99.90;;;;;;5036156;28;20084;-87
2022/11/11 13:49:07;;;;;;;;;;;11.90;99.90;;;;;;5037037;28;20049;-88
2022/11/11 13:51:40;;;;;;;25.50;17.33;;;11.90;99.90;;;;;;5036393;28;20208;-88
2022/11/11 13:54:34;;;;;;;27.23;17.70;;;11.90;99.90;;;;;;5036717;28;20099;-88
2022/11/11 13:57:07;;;;;;;26.75;17.92;;;11.90;99.90;;;;;;5036630;28;20041;-87
2022/11/11 13:59:37;;;;;;;29.02;18.23;;;11.80;99.90;;;;;;5033168;28;20104;-87